Time;durP1;ratioP1;P1;durP2;ratioP2;P2;SDS_P1;SDS_P2;PMS_P1;PMS_P2;Temp;Humidity;BMP_temperature;BMP_pressure;BME280_temperature;BME280_humidity;BME280_pressure;Samples;Min_cycle;Max_cycle;Signal;HPM_P1;HPM_P2
2021/01/29 00:11:42;;;;;;;17.90;11.23;;;8.90;99.90;;;;;;5012690;28;20262;-77
2021/01/29 00:14:08;;;;;;;20.07;11.13;;;8.90;99.90;;;;;;5019814;28;20593;-76
2021/01/29 00:16:35;;;;;;;23.43;12.20;;;8.90;99.90;;;;;;5021357;28;20386;-76
2021/01/29 00:19:14;;;;;;;23.60;11.53;;;8.90;99.90;;;;;;5011358;28;20301;-77
2021/01/29 00:21:43;;;;;;;20.37;12.03;;;9.00;99.90;;;;;;5019161;28;20201;-77
2021/01/29 00:24:09;;;;;;;32.17;14.17;;;9.00;99.90;;;;;;5033789;28;20281;-76
2021/01/29 00:26:36;;;;;;;25.30;13.03;;;9.10;99.90;;;;;;5017871;28;20204;-77
2021/01/29 00:29:03;;;;;;;31.73;12.47;;;9.20;99.90;;;;;;5006671;28;20252;-77
2021/01/29 00:31:29;;;;;;;34.03;12.90;;;9.20;99.90;;;;;;5015650;28;20305;-77
2021/01/29 00:33:56;;;;;;;27.17;12.83;;;9.20;99.90;;;;;;5006073;28;20501;-76
2021/01/29 00:36:22;;;;;;;29.67;13.47;;;9.10;99.90;;;;;;5005779;28;20259;-77
2021/01/29 00:38:49;;;;;;;31.37;11.73;;;9.10;99.90;;;;;;5009393;28;20565;-77
2021/01/29 00:41:16;;;;;;;26.87;11.50;;;9.10;99.90;;;;;;5017536;28;20203;-77
2021/01/29 00:43:43;;;;;;;34.67;11.87;;;9.20;99.90;;;;;;5016119;28;20715;-77
2021/01/29 00:46:09;;;;;;;31.80;12.10;;;9.10;99.90;;;;;;4991840;28;20740;-76
2021/01/29 00:48:36;;;;;;;23.80;10.40;;;9.10;99.90;;;;;;5004636;28;20275;-77
2021/01/29 00:51:02;;;;;;;31.40;10.00;;;9.10;99.90;;;;;;4986836;28;20341;-77
2021/01/29 00:53:29;;;;;;;19.77;9.63;;;9.10;99.90;;;;;;5022852;28;20204;-77
2021/01/29 00:55:55;;;;;;;25.33;9.17;;;9.00;99.90;;;;;;5004255;28;20212;-77
2021/01/29 00:58:22;;;;;;;19.23;9.40;;;9.00;99.90;;;;;;5014072;28;20209;-77
2021/01/29 01:00:48;;;;;;;20.67;9.20;;;9.00;99.90;;;;;;5014675;28;20713;-77
2021/01/29 01:03:14;;;;;;;20.97;8.70;;;9.00;99.90;;;;;;5006772;28;20300;-77
2021/01/29 01:05:42;;;;;;;19.07;8.33;;;9.10;99.90;;;;;;5016678;28;20254;-77
2021/01/29 01:08:10;;;;;;;17.30;8.27;;;9.00;99.90;;;;;;5033110;28;20255;-77
2021/01/29 01:10:36;;;;;;;18.07;8.30;;;9.00;99.90;;;;;;5003594;28;20300;-77
2021/01/29 01:13:02;;;;;;;19.67;8.57;;;9.00;99.90;;;;;;5016950;28;20204;-77
2021/01/29 01:15:29;;;;;;;18.93;8.60;;;9.20;99.90;;;;;;5011136;28;20281;-77
2021/01/29 01:17:58;;;;;;;17.67;8.83;;;9.10;99.90;;;;;;5013275;28;20202;-77
2021/01/29 01:20:28;;;;;;;16.30;7.93;;;9.10;99.90;;;;;;5023708;28;20284;-77
2021/01/29 01:25:42;;;;;;;20.70;9.57;;;9.30;99.90;;;;;;5020182;28;20214;-77
2021/01/29 01:28:08;;;;;;;21.60;9.33;;;9.20;99.90;;;;;;5050815;28;20230;-77
2021/01/29 01:30:38;;;;;;;20.37;9.27;;;9.20;99.90;;;;;;5017555;28;20200;-77
2021/01/29 01:33:06;;;;;;;23.20;9.10;;;9.20;99.90;;;;;;5019387;28;20648;-77
2021/01/29 01:35:33;;;;;;;27.40;9.30;;;9.30;99.90;;;;;;5020937;28;20224;-78
2021/01/29 01:38:00;;;;;;;26.47;9.47;;;9.30;99.90;;;;;;5027100;28;21043;-77
2021/01/29 01:40:40;;;;;;;18.13;8.80;;;9.30;99.90;;;;;;5020479;28;20657;-77
2021/01/29 01:43:07;;;;;;;24.60;9.53;;;9.30;99.90;;;;;;5019871;28;20515;-77
2021/01/29 01:45:33;;;;;;;23.40;8.53;;;9.40;99.90;;;;;;5026399;28;20208;-77
2021/01/29 01:48:05;;;;;;;22.23;8.80;;;9.30;99.90;;;;;;5025239;28;20330;-77
2021/01/29 01:50:35;;;;;;;20.07;8.03;;;9.30;99.90;;;;;;5017172;28;20201;-78
2021/01/29 01:53:04;;;;;;;20.47;8.97;;;9.30;99.90;;;;;;5021223;28;21061;-78
2021/01/29 01:55:37;;;;;;;21.90;8.70;;;9.30;99.90;;;;;;5014903;28;20249;-78
2021/01/29 01:58:05;;;;;;;25.13;10.50;;;9.30;99.90;;;;;;5048540;28;20245;-77
2021/01/29 02:00:32;;;;;;;15.87;9.10;;;9.40;99.90;;;;;;5016119;28;20256;-78
2021/01/29 02:03:06;;;;;;;20.10;8.50;;;9.40;99.90;;;;;;5021990;28;20208;-78
2021/01/29 02:05:39;;;;;;;22.17;9.30;;;9.40;99.90;;;;;;5017767;28;20226;-78
2021/01/29 02:08:09;;;;;;;16.97;8.43;;;9.30;99.90;;;;;;5018045;28;20251;-78
2021/01/29 02:10:36;;;;;;;24.77;8.50;;;9.30;99.90;;;;;;5016676;28;20755;-77
2021/01/29 02:13:05;;;;;;;27.40;9.40;;;9.40;99.90;;;;;;5018335;28;20299;-77
2021/01/29 02:15:34;;;;;;;19.60;8.17;;;9.40;99.90;;;;;;5020644;28;20244;-77
2021/01/29 02:18:03;;;;;;;22.63;9.00;;;9.40;99.90;;;;;;5024453;28;20201;-78
2021/01/29 02:21:03;;;;;;;18.80;7.70;;;9.60;99.90;;;;;;5016193;28;20229;-77
2021/01/29 02:24:03;;;;;;;16.77;6.90;;;9.60;99.90;;;;;;5022302;28;20238;-77
2021/01/29 02:26:45;;;;;;;22.83;7.13;;;9.50;99.90;;;;;;5016942;28;20217;-77
2021/01/29 02:29:26;;;;;;;11.63;6.10;;;9.40;99.90;;;;;;5017588;28;20232;-77
2021/01/29 02:32:13;;;;;;;17.33;7.70;;;9.50;99.90;;;;;;5016464;28;20768;-77
2021/01/29 02:35:03;;;;;;;9.17;6.60;;;9.50;99.90;;;;;;5016216;28;20202;-77
2021/01/29 02:37:35;;;;;;;12.83;7.40;;;9.50;99.90;;;;;;5018627;28;20206;-78
2021/01/29 02:40:13;;;;;;;16.13;6.83;;;9.50;99.90;;;;;;5014329;28;20291;-78
2021/01/29 02:42:49;;;;;;;14.43;6.50;;;9.50;99.90;;;;;;5017974;28;20579;-77
2021/01/29 02:45:30;;;;;;;14.10;6.50;;;9.50;99.90;;;;;;5015727;28;20201;-77
2021/01/29 02:48:00;;;;;;;10.50;5.43;;;9.60;99.90;;;;;;5018181;28;20731;-77
2021/01/29 02:50:55;;;;;;;8.23;5.53;;;9.60;99.90;;;;;;5020036;28;20308;-77
2021/01/29 02:53:48;;;;;;;10.43;5.83;;;9.50;99.90;;;;;;5018531;28;20286;-77
2021/01/29 02:56:17;;;;;;;6.43;4.83;;;9.50;99.90;;;;;;5025620;28;20228;-77
2021/01/29 02:59:01;;;;;;;7.17;4.33;;;9.60;99.90;;;;;;5015666;28;20193;-77
2021/01/29 03:01:39;;;;;;;8.50;4.90;;;9.40;99.90;;;;;;5013565;28;20289;-78
2021/01/29 03:04:14;;;;;;;6.27;4.10;;;9.40;99.90;;;;;;5029607;28;20381;-78
2021/01/29 03:07:08;;;;;;;7.77;4.30;;;9.40;99.90;;;;;;5032903;28;20231;-77
2021/01/29 03:09:48;;;;;;;10.17;5.47;;;9.30;99.90;;;;;;5013069;28;20971;-77
2021/01/29 03:12:21;;;;;;;6.33;3.93;;;9.30;99.90;;;;;;5030929;28;20639;-77
2021/01/29 03:15:02;;;;;;;7.60;4.13;;;9.20;99.90;;;;;;5015979;28;20223;-77
2021/01/29 03:17:40;;;;;;;7.20;3.43;;;9.20;99.90;;;;;;5015959;28;20277;-77
2021/01/29 03:20:18;;;;;;;7.70;3.90;;;9.20;99.90;;;;;;5047514;28;20297;-78
2021/01/29 03:22:57;;;;;;;5.57;3.00;;;9.20;99.90;;;;;;5019097;28;20200;-78
2021/01/29 03:25:45;;;;;;;5.43;3.77;;;9.20;99.90;;;;;;5015450;28;20267;-78
2021/01/29 03:28:21;;;;;;;4.67;3.60;;;9.30;99.90;;;;;;5016440;28;20344;-77
2021/01/29 03:30:53;;;;;;;6.13;3.30;;;9.30;99.90;;;;;;5025370;28;20204;-77
2021/01/29 03:33:25;;;;;;;6.20;2.93;;;9.30;99.90;;;;;;5011442;28;20204;-77
2021/01/29 03:36:01;;;;;;;4.10;3.03;;;9.30;99.90;;;;;;5015836;28;20765;-77
2021/01/29 03:38:40;;;;;;;6.20;3.40;;;9.30;99.90;;;;;;5018932;28;20597;-77
2021/01/29 03:41:22;;;;;;;4.20;3.30;;;9.30;99.90;;;;;;5019593;28;20208;-77
2021/01/29 03:44:01;;;;;;;5.30;3.47;;;9.30;99.90;;;;;;5023725;28;20202;-77
2021/01/29 03:46:50;;;;;;;6.63;3.30;;;9.30;99.90;;;;;;5035213;28;20208;-77
2021/01/29 03:49:48;;;;;;;4.70;3.30;;;9.30;99.90;;;;;;5023565;28;20305;-77
2021/01/29 03:52:21;;;;;;;5.80;3.53;;;9.30;99.90;;;;;;5019080;28;20216;-77
2021/01/29 03:55:08;;;;;;;3.87;3.03;;;9.30;99.90;;;;;;5018540;28;20200;-77
2021/01/29 03:57:43;;;;;;;5.00;2.97;;;9.30;99.90;;;;;;5019695;28;20307;-77
2021/01/29 04:00:29;;;;;;;4.07;2.93;;;9.40;99.90;;;;;;5012052;28;20209;-77
2021/01/29 04:02:59;;;;;;;5.20;3.10;;;9.40;99.90;;;;;;5020725;28;20214;-76
2021/01/29 04:05:51;;;;;;;4.10;3.10;;;9.50;99.90;;;;;;5014800;28;20215;-77
2021/01/29 04:08:34;;;;;;;4.97;3.47;;;9.50;99.90;;;;;;5015376;28;20203;-76
2021/01/29 04:11:04;;;;;;;3.93;3.10;;;9.60;99.90;;;;;;5015248;28;20206;-77
2021/01/29 04:13:47;;;;;;;3.97;2.90;;;9.50;99.90;;;;;;5017939;28;20203;-77
2021/01/29 04:16:19;;;;;;;5.70;3.70;;;9.50;99.90;;;;;;5019820;28;20259;-77
2021/01/29 04:18:51;;;;;;;5.13;3.50;;;9.50;99.90;;;;;;5013742;28;20214;-77
2021/01/29 04:21:35;;;;;;;3.63;2.90;;;9.50;99.90;;;;;;5014487;28;20205;-77
2021/01/29 04:24:19;;;;;;;6.93;2.87;;;9.40;99.90;;;;;;5016287;28;20202;-77
2021/01/29 04:27:14;;;;;;;6.03;2.83;;;9.40;99.90;;;;;;5010878;28;20207;-77
2021/01/29 04:29:50;;;;;;;5.67;3.23;;;9.50;99.90;;;;;;5012630;28;20266;-77
2021/01/29 04:32:22;;;;;;;4.17;3.30;;;9.50;99.90;;;;;;5019002;28;20216;-77
2021/01/29 04:34:53;;;;;;;4.37;2.57;;;9.50;99.90;;;;;;5013087;28;20526;-77
2021/01/29 04:37:32;;;;;;;4.07;2.87;;;9.50;99.90;;;;;;5010584;28;20546;-77
2021/01/29 04:40:06;;;;;;;3.73;3.07;;;9.40;99.90;;;;;;5018182;28;21848;-77
2021/01/29 04:43:15;;;;;;;3.90;2.87;;;9.60;99.90;;;;;;5019564;28;20208;-77
2021/01/29 04:45:49;;;;;;;4.37;3.17;;;9.50;99.90;;;;;;5005135;28;20562;-78
2021/01/29 04:48:36;;;;;;;5.20;3.00;;;9.50;99.90;;;;;;5015318;28;20226;-76
2021/01/29 04:51:40;;;;;;;4.53;2.73;;;9.50;99.90;;;;;;5020254;28;20255;-76
2021/01/29 04:54:28;;;;;;;3.97;2.93;;;9.40;99.90;;;;;;5018926;28;20231;-77
2021/01/29 04:56:57;;;;;;;4.40;3.10;;;9.50;99.90;;;;;;5020630;28;20590;-76
2021/01/29 04:59:39;;;;;;;3.27;2.63;;;9.50;99.90;;;;;;5022752;28;20247;-77
2021/01/29 05:02:26;;;;;;;5.07;3.17;;;9.40;99.90;;;;;;5023816;28;20253;-77
2021/01/29 05:04:56;;;;;;;3.97;3.20;;;9.40;99.90;;;;;;5032803;28;20207;-77
2021/01/29 05:07:49;;;;;;;4.57;3.27;;;9.40;99.90;;;;;;5029094;28;20277;-77
2021/01/29 05:10:38;;;;;;;4.17;3.27;;;9.50;99.90;;;;;;5016443;28;20210;-77
2021/01/29 05:13:26;;;;;;;3.70;2.33;;;9.60;99.90;;;;;;5020834;28;20214;-78
2021/01/29 05:16:01;;;;;;;3.40;2.60;;;9.60;99.90;;;;;;5023354;28;20201;-77
2021/01/29 05:18:49;;;;;;;3.33;2.03;;;9.50;99.90;;;;;;5019448;28;20217;-77
2021/01/29 05:21:47;;;;;;;3.27;1.90;;;9.60;99.90;;;;;;5022088;28;20201;-77
2021/01/29 05:24:44;;;;;;;1.40;1.27;;;9.50;99.90;;;;;;5003503;28;20212;-77
2021/01/29 05:27:43;;;;;;;1.70;0.90;;;9.50;99.90;;;;;;5029201;28;20207;-77
2021/01/29 05:30:45;;;;;;;2.03;1.10;;;9.50;99.90;;;;;;4990537;28;20319;-78
2021/01/29 05:33:36;;;;;;;1.63;1.20;;;9.50;99.90;;;;;;5016702;28;20205;-77
2021/01/29 05:36:16;;;;;;;1.43;1.10;;;9.50;99.90;;;;;;5034014;28;20270;-76
2021/01/29 05:38:59;;;;;;;1.77;1.17;;;9.50;99.90;;;;;;5021117;28;20197;-77
2021/01/29 05:41:59;;;;;;;2.03;0.90;;;9.50;99.90;;;;;;5035257;28;20290;-76
2021/01/29 05:44:31;;;;;;;1.13;0.83;;;9.40;99.90;;;;;;5015091;28;20605;-76
2021/01/29 05:47:09;;;;;;;2.60;1.23;;;9.40;99.90;;;;;;5021684;28;20254;-77
2021/01/29 05:50:01;;;;;;;1.10;0.80;;;9.40;99.90;;;;;;5014526;28;20258;-76
2021/01/29 05:52:55;;;;;;;1.33;0.90;;;9.30;99.90;;;;;;5034003;28;20209;-76
2021/01/29 05:55:40;;;;;;;0.60;0.53;;;9.30;99.90;;;;;;5016925;28;20260;-76
2021/01/29 05:58:47;;;;;;;3.23;0.90;;;9.20;99.90;;;;;;5032811;28;20220;-76
2021/01/29 06:01:45;;;;;;;1.20;0.83;;;9.20;99.90;;;;;;5021660;28;20226;-77
2021/01/29 06:04:28;;;;;;;2.50;1.17;;;9.20;99.90;;;;;;5018706;28;20204;-77
2021/01/29 06:07:21;;;;;;;4.10;1.33;;;9.20;99.90;;;;;;5018738;28;21313;-77
2021/01/29 06:10:06;;;;;;;3.60;1.33;;;9.20;99.90;;;;;;5021078;28;20618;-77
2021/01/29 06:12:41;;;;;;;4.80;1.40;;;9.10;99.90;;;;;;5023418;28;20254;-77
2021/01/29 06:15:33;;;;;;;2.80;1.40;;;9.20;99.90;;;;;;5018844;28;20196;-77
2021/01/29 06:17:59;;;;;;;10.80;1.97;;;9.20;99.90;;;;;;5014089;28;20260;-77
2021/01/29 06:21:10;;;;;;;3.50;1.40;;;9.30;99.90;;;;;;5028192;28;20202;-77
2021/01/29 06:24:13;;;;;;;3.50;1.90;;;9.20;99.90;;;;;;5015861;28;20201;-77
2021/01/29 06:27:10;;;;;;;8.87;1.80;;;9.30;99.90;;;;;;5032577;28;20272;-77
2021/01/29 06:29:45;;;;;;;2.57;1.27;;;9.30;99.90;;;;;;5032404;28;20215;-77
2021/01/29 06:32:48;;;;;;;5.40;1.33;;;9.30;99.90;;;;;;5034855;28;20218;-76
2021/01/29 06:35:41;;;;;;;8.73;1.77;;;9.30;99.90;;;;;;5016719;28;20262;-77
2021/01/29 06:38:22;;;;;;;6.50;1.20;;;9.30;99.90;;;;;;5016223;28;20209;-77
2021/01/29 06:41:22;;;;;;;5.30;1.10;;;9.30;99.90;;;;;;5018161;28;20288;-77
2021/01/29 06:44:23;;;;;;;4.77;1.00;;;9.20;99.90;;;;;;5030899;28;20291;-77
2021/01/29 06:47:12;;;;;;;6.13;1.03;;;9.20;99.90;;;;;;5023481;28;20571;-77
2021/01/29 06:49:51;;;;;;;2.27;0.97;;;9.20;99.90;;;;;;5018843;28;20336;-77
2021/01/29 06:52:39;;;;;;;5.00;0.90;;;9.20;99.90;;;;;;5019776;28;20209;-77
2021/01/29 06:55:40;;;;;;;4.70;0.87;;;9.10;99.90;;;;;;5018869;28;20198;-77
2021/01/29 06:58:38;;;;;;;2.40;1.07;;;9.10;99.90;;;;;;5019473;28;20679;-77
2021/01/29 07:01:37;;;;;;;3.73;1.20;;;9.20;99.90;;;;;;5015553;28;20206;-77
2021/01/29 07:04:34;;;;;;;3.23;1.17;;;9.10;99.90;;;;;;5030432;28;20212;-76
2021/01/29 07:07:26;;;;;;;7.67;1.40;;;9.20;99.90;;;;;;5030921;28;20265;-78
2021/01/29 07:10:12;;;;;;;3.33;1.13;;;9.20;99.90;;;;;;5017220;28;20213;-77
2021/01/29 07:13:03;;;;;;;15.30;2.17;;;9.30;99.90;;;;;;5000838;28;20203;-76
2021/01/29 07:15:39;;;;;;;6.17;1.93;;;9.30;99.90;;;;;;5012632;28;20202;-76
2021/01/29 07:18:45;;;;;;;9.27;1.67;;;9.40;99.90;;;;;;5023018;28;20219;-76
2021/01/29 07:21:44;;;;;;;8.83;1.97;;;9.40;99.90;;;;;;5024885;28;20208;-76
2021/01/29 07:24:56;;;;;;;20.13;2.47;;;9.40;99.90;;;;;;5015477;28;20206;-76
2021/01/29 07:27:39;;;;;;;10.63;2.97;;;9.50;99.90;;;;;;5015484;28;20300;-76
2021/01/29 07:30:17;;;;;;;11.03;2.53;;;9.50;99.90;;;;;;5019387;28;20666;-76
2021/01/29 07:32:59;;;;;;;10.47;2.53;;;9.50;99.90;;;;;;5017257;28;20248;-76
2021/01/29 07:36:05;;;;;;;14.27;2.70;;;9.50;99.90;;;;;;5020318;28;20204;-78
2021/01/29 07:39:13;;;;;;;12.70;2.40;;;9.40;99.90;;;;;;5015317;28;21119;-77
2021/01/29 07:42:16;;;;;;;15.77;3.43;;;9.40;99.90;;;;;;5018402;28;20213;-76
2021/01/29 07:45:36;;;;;;;11.47;3.13;;;9.40;99.90;;;;;;5029471;28;20256;-76
2021/01/29 07:48:40;;;;;;;11.53;2.83;;;9.40;99.90;;;;;;5006736;28;20198;-78
2021/01/29 07:51:28;;;;;;;17.20;3.20;;;9.30;99.90;;;;;;5025869;28;20198;-77
2021/01/29 07:54:13;;;;;;;16.60;2.87;;;9.30;99.90;;;;;;5027309;28;20826;-77
2021/01/29 07:57:11;;;;;;;15.37;2.67;;;9.30;99.90;;;;;;5021567;28;20218;-77
2021/01/29 07:59:56;;;;;;;18.43;3.47;;;9.30;99.90;;;;;;5011763;28;20195;-78
2021/01/29 08:02:48;;;;;;;18.13;3.90;;;9.30;99.90;;;;;;5013432;28;20646;-77
2021/01/29 08:05:25;;;;;;;17.47;2.53;;;9.30;99.90;;;;;;5018866;28;20228;-77
2021/01/29 08:08:13;;;;;;;12.60;2.90;;;9.30;99.90;;;;;;5015138;28;20194;-81
2021/01/29 08:10:43;;;;;;;12.07;2.50;;;9.30;99.90;;;;;;5011070;28;20331;-79
2021/01/29 08:13:35;;;;;;;14.53;2.70;;;9.40;99.90;;;;;;5017307;28;20220;-82
2021/01/29 08:16:02;;;;;;;11.80;2.40;;;9.30;99.90;;;;;;5016820;28;20702;-84
2021/01/29 08:19:22;;;;;;;23.13;5.20;;;9.40;99.90;;;;;;5023186;28;20202;-82
2021/01/29 08:22:06;;;;;;;17.50;3.03;;;9.40;99.90;;;;;;4984918;28;20207;-82
2021/01/29 08:25:00;;;;;;;11.90;2.30;;;9.30;99.90;;;;;;4980210;28;20258;-81
2021/01/29 08:27:57;;;;;;;11.90;2.70;;;9.30;99.90;;;;;;5002187;28;20266;-82
2021/01/29 08:30:46;;;;;;;11.63;2.60;;;9.40;99.90;;;;;;4973852;28;20690;-81
2021/01/29 08:33:51;;;;;;;15.03;2.73;;;9.40;99.90;;;;;;4980469;28;21041;-81
2021/01/29 08:36:38;;;;;;;15.97;2.77;;;9.30;99.90;;;;;;5003893;28;20729;-82
2021/01/29 08:39:25;;;;;;;15.23;3.43;;;9.40;99.90;;;;;;4990276;28;20217;-82
2021/01/29 08:42:17;;;;;;;10.43;2.60;;;9.40;99.90;;;;;;4989575;28;20328;-83
2021/01/29 08:44:46;;;;;;;17.00;3.10;;;9.40;99.90;;;;;;4982490;28;20217;-82
2021/01/29 08:47:35;;;;;;;10.90;2.13;;;9.40;99.90;;;;;;5001609;28;20650;-82
2021/01/29 08:50:17;;;;;;;9.67;2.50;;;9.40;99.90;;;;;;4987553;28;20308;-81
2021/01/29 08:52:43;;;;;;;13.60;2.63;;;9.40;99.90;;;;;;4980700;28;20202;-82
2021/01/29 08:55:41;;;;;;;8.40;2.40;;;9.40;99.90;;;;;;4984888;28;20203;-80
2021/01/29 08:58:15;;;;;;;15.93;3.23;;;9.40;99.90;;;;;;4975377;28;20230;-77
2021/01/29 09:00:42;;;;;;;12.63;2.80;;;9.40;99.90;;;;;;5004424;28;20205;-77
2021/01/29 09:03:29;;;;;;;20.53;2.57;;;9.40;99.90;;;;;;4976049;28;20207;-80
2021/01/29 09:06:12;;;;;;;11.27;2.33;;;9.40;99.90;;;;;;4976423;28;20202;-75
2021/01/29 09:08:40;;;;;;;14.73;3.00;;;9.40;99.90;;;;;;4992569;28;20218;-79
2021/01/29 09:11:25;;;;;;;16.13;2.70;;;9.40;99.90;;;;;;4980317;28;20241;-86
2021/01/29 09:13:57;;;;;;;20.93;3.67;;;9.50;99.90;;;;;;4992909;28;20207;-83
2021/01/29 09:16:28;;;;;;;16.33;2.70;;;9.50;99.90;;;;;;4979218;28;20321;-83
2021/01/29 09:19:06;;;;;;;21.00;3.10;;;9.60;99.90;;;;;;4998182;28;20225;-82
2021/01/29 09:21:51;;;;;;;15.60;3.83;;;9.70;99.90;;;;;;4978166;28;20210;-83
2021/01/29 09:24:37;;;;;;;23.43;2.90;;;9.60;99.90;;;;;;4980228;28;20221;-80
2021/01/29 09:27:06;;;;;;;19.77;3.23;;;9.60;99.90;;;;;;4973813;28;20563;-81
2021/01/29 09:29:52;;;;;;;12.23;2.73;;;9.70;99.90;;;;;;5009947;28;20651;-84
2021/01/29 09:32:52;;;;;;;14.40;3.10;;;9.60;99.90;;;;;;5006557;28;20272;-84
2021/01/29 09:35:39;;;;;;;14.17;2.57;;;9.70;99.90;;;;;;5029149;28;20236;-83
2021/01/29 09:38:11;;;;;;;12.17;2.87;;;9.80;99.90;;;;;;5001816;28;20221;-84
2021/01/29 09:40:55;;;;;;;12.87;2.27;;;9.70;99.90;;;;;;4996661;28;20214;-84
2021/01/29 09:43:25;;;;;;;6.37;1.90;;;9.80;99.90;;;;;;4992225;28;20229;-82
2021/01/29 09:45:56;;;;;;;16.70;3.60;;;9.90;99.90;;;;;;5012290;28;20232;-79
2021/01/29 09:48:25;;;;;;;14.63;2.87;;;9.90;99.90;;;;;;4983929;28;20241;-84
2021/01/29 09:51:13;;;;;;;12.63;2.73;;;9.90;99.90;;;;;;4984755;28;20763;-80
2021/01/29 09:53:53;;;;;;;20.47;3.40;;;9.90;99.90;;;;;;5000246;28;20204;-83
2021/01/29 09:56:25;;;;;;;12.07;3.17;;;10.00;99.90;;;;;;5003387;28;20197;-81
2021/01/29 09:59:06;;;;;;;12.73;1.93;;;10.10;99.90;;;;;;5000305;28;20538;-86
2021/01/29 10:01:41;;;;;;;12.00;3.10;;;10.10;99.90;;;;;;5010883;28;20666;-81
2021/01/29 10:04:34;;;;;;;15.03;3.30;;;10.10;99.90;;;;;;5002258;28;20199;-82
2021/01/29 10:07:08;;;;;;;17.93;2.87;;;10.10;99.90;;;;;;4999068;28;20202;-79
2021/01/29 10:09:39;;;;;;;17.87;4.00;;;10.20;99.90;;;;;;5000831;28;20412;-80
2021/01/29 10:12:11;;;;;;;25.20;3.13;;;10.20;99.90;;;;;;5004298;28;20719;-81
2021/01/29 10:14:50;;;;;;;20.30;3.27;;;10.20;99.90;;;;;;5018448;28;20230;-80
2021/01/29 10:17:45;;;;;;;15.80;2.23;;;10.20;99.90;;;;;;5000344;28;20197;-80
2021/01/29 10:20:27;;;;;;;15.17;2.23;;;10.20;99.90;;;;;;5003469;28;23718;-81
2021/01/29 10:23:27;;;;;;;17.63;2.40;;;10.30;99.90;;;;;;5002269;28;20204;-80
2021/01/29 10:26:31;;;;;;;11.63;2.07;;;10.20;99.90;;;;;;5012180;28;20327;-81
2021/01/29 10:29:24;;;;;;;15.43;2.50;;;10.30;99.90;;;;;;5010756;28;20346;-81
2021/01/29 10:32:15;;;;;;;19.67;3.57;;;10.40;99.90;;;;;;5021561;28;20667;-79
2021/01/29 10:34:49;;;;;;;10.53;2.33;;;10.30;99.90;;;;;;5003803;28;20206;-80
2021/01/29 10:37:39;;;;;;;12.83;3.00;;;10.40;99.90;;;;;;5017625;28;20724;-79
2021/01/29 10:40:27;;;;;;;18.27;2.70;;;10.30;99.90;;;;;;5016248;28;20204;-80
2021/01/29 10:43:30;;;;;;;21.87;2.93;;;10.30;99.90;;;;;;5020917;28;20210;-80
2021/01/29 10:46:05;;;;;;;14.33;3.23;;;10.30;99.90;;;;;;5019599;28;20200;-79
2021/01/29 10:49:04;;;;;;;16.23;3.33;;;10.30;99.90;;;;;;5036098;28;20216;-78
2021/01/29 10:51:36;;;;;;;14.37;3.03;;;10.30;99.90;;;;;;5022934;28;20209;-78
2021/01/29 10:54:05;;;;;;;15.77;2.03;;;10.20;99.90;;;;;;5019138;28;20224;-80
2021/01/29 10:56:42;;;;;;;9.80;2.20;;;10.10;99.90;;;;;;5015446;28;20205;-78
2021/01/29 10:59:21;;;;;;;21.87;2.63;;;10.10;99.90;;;;;;5019893;28;20210;-77
2021/01/29 11:02:05;;;;;;;12.93;2.47;;;10.00;99.90;;;;;;5022149;28;20271;-79
2021/01/29 11:04:39;;;;;;;18.00;2.30;;;10.00;99.90;;;;;;5018333;28;20205;-79
2021/01/29 11:07:20;;;;;;;13.67;2.53;;;10.10;99.90;;;;;;5015865;28;20275;-78
2021/01/29 11:10:04;;;;;;;12.50;3.00;;;10.10;99.90;;;;;;5016913;28;20363;-79
2021/01/29 11:12:38;;;;;;;13.83;2.23;;;10.10;99.90;;;;;;5019657;28;20270;-79
2021/01/29 11:15:10;;;;;;;8.97;2.00;;;10.00;99.90;;;;;;5018839;28;20682;-79
2021/01/29 11:18:19;;;;;;;9.30;2.10;;;10.00;99.90;;;;;;5021195;28;20202;-77
2021/01/29 11:20:47;;;;;;;19.60;2.90;;;10.00;99.90;;;;;;5017479;28;20201;-79
2021/01/29 11:23:37;;;;;;;10.07;2.17;;;9.90;99.90;;;;;;5024061;28;20197;-79
2021/01/29 11:26:28;;;;;;;9.73;2.13;;;9.90;99.90;;;;;;5044996;28;20261;-81
2021/01/29 11:29:03;;;;;;;13.93;2.20;;;9.90;99.90;;;;;;5022433;28;20318;-82
2021/01/29 11:31:45;;;;;;;9.70;2.00;;;9.90;99.90;;;;;;5020797;28;20206;-80
2021/01/29 11:34:26;;;;;;;13.07;2.47;;;9.90;99.90;;;;;;5014429;28;20335;-81
2021/01/29 11:37:06;;;;;;;11.50;2.27;;;9.90;99.90;;;;;;5016031;28;20194;-82
2021/01/29 11:39:59;;;;;;;8.30;1.93;;;10.00;99.90;;;;;;5043594;28;20208;-80
2021/01/29 11:42:37;;;;;;;13.80;2.13;;;10.10;99.90;;;;;;5014994;28;20207;-81
2021/01/29 11:45:26;;;;;;;12.87;2.30;;;10.00;99.90;;;;;;5011849;28;20197;-80
2021/01/29 11:48:21;;;;;;;12.10;2.80;;;10.00;99.90;;;;;;5020631;28;20211;-81
2021/01/29 11:51:01;;;;;;;13.77;2.23;;;10.00;99.90;;;;;;5019062;28;20284;-80
2021/01/29 11:53:43;;;;;;;11.03;2.10;;;10.00;99.90;;;;;;5024677;28;20570;-81
2021/01/29 11:56:25;;;;;;;12.27;2.27;;;10.00;99.90;;;;;;5016387;28;20291;-81
2021/01/29 11:59:01;;;;;;;6.50;1.87;;;10.20;99.90;;;;;;5020816;28;20205;-80
2021/01/29 12:01:54;;;;;;;13.60;2.27;;;10.10;99.90;;;;;;5027628;28;20212;-82
2021/01/29 12:04:36;;;;;;;7.77;1.87;;;10.10;99.90;;;;;;5009592;28;20216;-80
2021/01/29 12:07:12;;;;;;;10.27;2.10;;;10.10;99.90;;;;;;5023401;28;20207;-81
2021/01/29 12:10:09;;;;;;;7.80;1.77;;;10.10;99.90;;;;;;5019950;28;20373;-82
2021/01/29 12:13:14;;;;;;;15.77;2.90;;;10.10;99.90;;;;;;5018370;28;20205;-81
2021/01/29 12:15:54;;;;;;;11.60;2.10;;;10.10;99.90;;;;;;5015579;28;20272;-82
2021/01/29 12:18:22;;;;;;;9.00;2.43;;;10.10;99.90;;;;;;5013334;28;20199;-81
2021/01/29 12:20:49;;;;;;;6.73;1.97;;;10.20;99.90;;;;;;5006125;28;20205;-81
2021/01/29 12:23:36;;;;;;;9.67;1.60;;;10.10;99.90;;;;;;5002234;28;20213;-81
2021/01/29 12:26:14;;;;;;;18.70;2.63;;;10.20;99.90;;;;;;5028199;28;20202;-82
2021/01/29 12:29:03;;;;;;;14.87;2.60;;;10.20;99.90;;;;;;5012518;28;20237;-79
2021/01/29 12:31:44;;;;;;;8.23;2.13;;;10.20;99.90;;;;;;5021720;28;20467;-83
2021/01/29 12:34:30;;;;;;;21.40;2.53;;;10.20;99.90;;;;;;5015703;28;20292;-79
2021/01/29 12:37:19;;;;;;;10.07;3.00;;;10.20;99.90;;;;;;5031601;28;20202;-80
2021/01/29 12:40:08;;;;;;;16.13;2.10;;;10.10;99.90;;;;;;5019545;28;20205;-83
2021/01/29 12:42:40;;;;;;;13.43;2.17;;;10.00;99.90;;;;;;5029082;28;20235;-84
2021/01/29 12:45:22;;;;;;;11.20;1.43;;;9.90;99.90;;;;;;5024503;28;20614;-84
2021/01/29 12:48:27;;;;;;;20.83;3.20;;;10.00;99.90;;;;;;5012891;28;20606;-83
2021/01/29 12:50:59;;;;;;;8.13;2.23;;;9.90;99.90;;;;;;5012346;28;20233;-81
2021/01/29 12:53:41;;;;;;;10.97;2.60;;;9.80;99.90;;;;;;5018495;28;20283;-84
2021/01/29 12:56:31;;;;;;;20.30;2.90;;;9.90;99.90;;;;;;5018126;28;20206;-80
2021/01/29 12:59:03;;;;;;;11.67;3.53;;;9.90;99.90;;;;;;5016655;28;20203;-83
2021/01/29 13:01:35;;;;;;;18.60;3.33;;;10.00;99.90;;;;;;5021852;28;20663;-82
2021/01/29 13:04:24;;;;;;;15.30;2.87;;;9.90;99.90;;;;;;5013492;28;20205;-80
2021/01/29 13:07:23;;;;;;;12.77;2.97;;;9.90;99.90;;;;;;5024007;28;20209;-78
2021/01/29 13:10:18;;;;;;;17.97;2.73;;;9.90;99.90;;;;;;5018064;28;21473;-81
2021/01/29 13:13:05;;;;;;;14.97;2.63;;;10.00;99.90;;;;;;5016659;28;22688;-81
2021/01/29 13:15:56;;;;;;;15.57;2.83;;;10.00;99.90;;;;;;5006647;28;20201;-79
2021/01/29 13:18:48;;;;;;;17.13;2.77;;;10.00;99.90;;;;;;5033078;28;20312;-84
2021/01/29 13:21:27;;;;;;;10.40;2.23;;;10.00;99.90;;;;;;5017803;28;20214;-78
2021/01/29 13:24:01;;;;;;;16.97;2.63;;;10.00;99.90;;;;;;5022115;28;20421;-81
2021/01/29 13:26:30;;;;;;;12.00;2.87;;;10.10;99.90;;;;;;5014696;28;20599;-81
2021/01/29 13:29:01;;;;;;;11.17;2.77;;;10.10;99.90;;;;;;5020943;28;20260;-81
2021/01/29 13:31:35;;;;;;;13.77;3.10;;;10.20;99.90;;;;;;5022197;28;20247;-80
2021/01/29 13:34:29;;;;;;;17.80;2.73;;;10.10;99.90;;;;;;5022515;28;20285;-83
2021/01/29 13:37:02;;;;;;;8.70;1.87;;;10.20;99.90;;;;;;5022731;28;20561;-81
2021/01/29 13:39:40;;;;;;;16.30;2.47;;;10.10;99.90;;;;;;5021913;28;20224;-81
2021/01/29 13:42:38;;;;;;;14.23;3.50;;;10.10;99.90;;;;;;5025837;28;20209;-82
2021/01/29 13:45:31;;;;;;;15.87;2.53;;;10.10;99.90;;;;;;5050742;28;20209;-83
2021/01/29 13:48:21;;;;;;;6.90;2.23;;;10.10;99.90;;;;;;5022139;28;20280;-81
2021/01/29 13:51:00;;;;;;;16.97;2.73;;;10.10;99.90;;;;;;5021559;28;20229;-84
2021/01/29 13:53:35;;;;;;;15.87;2.37;;;10.10;99.90;;;;;;5025202;28;20336;-83
2021/01/29 13:56:31;;;;;;;11.67;2.30;;;10.10;99.90;;;;;;5022903;28;20197;-82
2021/01/29 13:59:24;;;;;;;13.27;2.63;;;10.10;99.90;;;;;;5016441;28;20570;-83
2021/01/29 14:02:31;;;;;;;10.63;1.93;;;10.10;99.90;;;;;;5014180;28;20201;-84
2021/01/29 14:05:03;;;;;;;14.13;2.63;;;10.20;99.90;;;;;;5009451;28;20254;-84
2021/01/29 14:07:30;;;;;;;12.57;2.63;;;10.30;99.90;;;;;;5031021;28;21193;-82
2021/01/29 14:09:56;;;;;;;14.70;2.80;;;10.40;99.90;;;;;;4994545;28;20271;-81
2021/01/29 14:12:37;;;;;;;17.80;2.80;;;10.30;99.90;;;;;;5005971;28;20271;-84
2021/01/29 14:15:16;;;;;;;14.27;2.87;;;10.30;99.90;;;;;;5011534;28;20210;-84
2021/01/29 14:18:01;;;;;;;17.10;2.70;;;10.20;99.90;;;;;;5014726;28;20192;-81